createdAt,value
2023-04-03T00:00:46.646Z,61.80
2023-04-03T00:03:13.109Z,61.81
2023-04-03T00:05:39.575Z,61.62
2023-04-03T00:08:08.831Z,61.55
2023-04-03T00:10:35.910Z,61.67
2023-04-03T00:13:03.713Z,61.73
2023-04-03T00:15:30.271Z,61.98
2023-04-03T00:17:56.703Z,61.71
2023-04-03T00:20:23.209Z,61.27
2023-04-03T00:22:49.844Z,61.70
2023-04-03T00:25:16.395Z,61.62
2023-04-03T00:27:42.846Z,61.82
2023-04-03T00:30:12.279Z,62.24
2023-04-03T00:32:38.702Z,62.05
2023-04-03T00:35:06.128Z,62.19
2023-04-03T00:37:32.748Z,62.09
2023-04-03T00:39:59.152Z,62.16
2023-04-03T00:42:25.939Z,61.56
2023-04-03T00:44:58.355Z,62.36
2023-04-03T00:47:25.570Z,62.58
2023-04-03T00:49:52.603Z,62.61
2023-04-03T00:52:22.008Z,62.61
2023-04-03T00:54:50.440Z,62.97
2023-04-03T00:57:17.162Z,62.97
2023-04-03T00:59:47.688Z,63.11
2023-04-03T01:02:14.205Z,63.11
2023-04-03T01:04:44.795Z,63.58
2023-04-03T01:07:14.496Z,63.48
2023-04-03T01:09:41.616Z,63.51
2023-04-03T01:12:26.418Z,65.06
2023-04-03T01:14:55.758Z,63.92
2023-04-03T01:17:43.004Z,65.42
2023-04-03T01:20:12.636Z,64.91
2023-04-03T01:23:01.088Z,65.83
2023-04-03T01:25:27.584Z,64.47
2023-04-03T01:27:54.663Z,64.78
2023-04-03T01:30:22.899Z,64.98
2023-04-03T01:32:49.591Z,64.80
2023-04-03T01:35:16.186Z,65.02
2023-04-03T01:37:42.577Z,65.10
2023-04-03T01:40:09.554Z,65.83
2023-04-03T01:42:35.982Z,65.89
2023-04-03T01:45:02.397Z,66.44
2023-04-03T01:47:28.827Z,66.23
2023-04-03T01:49:55.306Z,66.46
2023-04-03T01:52:21.765Z,66.48
2023-04-03T01:54:48.238Z,67.25
2023-04-03T01:57:16.043Z,67.84
2023-04-03T01:59:42.586Z,67.68
2023-04-03T02:02:09.081Z,67.80
2023-04-03T02:04:35.473Z,67.62
2023-04-03T02:07:01.925Z,68.03
2023-04-03T02:09:28.452Z,68.20
2023-04-03T02:11:54.971Z,68.13
2023-04-03T02:14:22.829Z,68.76
2023-04-03T02:16:49.344Z,69.14
2023-04-03T02:19:15.988Z,69.22
2023-04-03T02:21:42.414Z,68.91
2023-04-03T02:24:08.956Z,69.07
2023-04-03T02:26:35.455Z,69.39
2023-04-03T02:29:01.857Z,69.36
2023-04-03T02:31:28.398Z,69.46
2023-04-03T02:33:55.113Z,69.30
2023-04-03T02:36:21.531Z,69.44
2023-04-03T02:38:49.242Z,69.78
2023-04-03T02:41:15.716Z,69.91
2023-04-03T02:43:42.137Z,70.05
2023-04-03T02:46:08.968Z,70.01
2023-04-03T02:48:36.224Z,70.39
2023-04-03T02:51:02.706Z,70.90
2023-04-03T02:53:29.109Z,70.86
2023-04-03T02:55:55.533Z,70.97
2023-04-03T02:58:22.019Z,71.24
2023-04-03T03:00:48.438Z,71.29
2023-04-03T03:03:15.882Z,71.33
2023-04-03T03:05:42.315Z,71.30
2023-04-03T03:08:08.815Z,71.82
2023-04-03T03:10:35.501Z,71.49
2023-04-03T03:13:02.181Z,71.67
2023-04-03T03:15:28.610Z,71.73
2023-04-03T03:17:55.459Z,71.86
2023-04-03T03:20:22.146Z,72.06
2023-04-03T03:22:48.604Z,72.01
2023-04-03T03:25:15.109Z,72.53
2023-04-03T03:27:41.565Z,72.42
2023-04-03T03:30:08.654Z,72.67
2023-04-03T03:32:35.406Z,72.92
2023-04-03T03:35:01.992Z,72.96
2023-04-03T03:37:28.657Z,72.86
2023-04-03T03:39:55.277Z,73.12
2023-04-03T03:42:21.820Z,73.50
2023-04-03T03:44:48.228Z,73.79
2023-04-03T03:47:14.812Z,73.59
2023-04-03T03:49:41.816Z,73.91
2023-04-03T03:52:11.419Z,74.04
2023-04-03T03:54:38.793Z,73.91
2023-04-03T03:57:05.583Z,74.52
2023-04-03T03:59:32.067Z,74.45
2023-04-03T04:01:58.545Z,74.38
2023-04-03T04:04:25.039Z,74.86
2023-04-03T04:06:51.527Z,75.51
2023-04-03T04:09:17.987Z,75.09
2023-04-03T04:11:44.402Z,74.82
2023-04-03T04:14:13.291Z,74.59
2023-04-03T04:16:39.942Z,74.50
2023-04-03T04:19:08.451Z,75.14
2023-04-03T04:21:36.242Z,75.56
2023-04-03T04:24:02.779Z,75.88
2023-04-03T04:26:29.193Z,75.87
2023-04-03T04:28:55.611Z,75.69
2023-04-03T04:31:22.114Z,75.93
2023-04-03T04:33:48.530Z,76.42
2023-04-03T04:36:15.877Z,76.00
2023-04-03T04:38:43.180Z,76.46
2023-04-03T04:41:09.665Z,76.23
2023-04-03T04:43:36.277Z,76.19
2023-04-03T04:46:11.409Z,76.60
2023-04-03T04:48:38.137Z,76.64
2023-04-03T04:51:05.110Z,76.36
2023-04-03T04:53:31.517Z,76.45
2023-04-03T04:55:57.938Z,76.54
2023-04-03T04:58:24.407Z,76.38
2023-04-03T05:00:50.967Z,76.91
2023-04-03T05:03:17.497Z,76.76
2023-04-03T05:05:43.922Z,76.70
2023-04-03T05:08:10.407Z,76.79
2023-04-03T05:10:36.833Z,76.45
2023-04-03T05:13:03.228Z,76.81
2023-04-03T05:15:29.640Z,77.14
2023-04-03T05:17:56.152Z,77.57
2023-04-03T05:20:22.684Z,77.16
2023-04-03T05:22:49.137Z,77.77
2023-04-03T05:25:15.670Z,77.05
2023-04-03T05:27:42.082Z,77.33
2023-04-03T05:30:09.331Z,77.77
2023-04-03T05:32:35.846Z,77.39
2023-04-03T05:35:02.428Z,77.55
2023-04-03T05:37:28.944Z,77.33
2023-04-03T05:39:55.752Z,77.88
2023-04-03T05:42:22.211Z,77.41
2023-04-03T05:44:49.767Z,77.17
2023-04-03T05:47:16.316Z,76.92
2023-04-03T05:49:42.790Z,76.93
2023-04-03T05:52:27.133Z,77.03
2023-04-03T05:54:53.787Z,77.27
2023-04-03T05:57:20.648Z,77.19
2023-04-03T05:59:47.488Z,76.98
2023-04-03T06:02:17.010Z,76.59
2023-04-03T06:04:43.556Z,76.30
2023-04-03T06:07:14.892Z,76.03
2023-04-03T06:09:41.531Z,76.18
2023-04-03T06:12:08.064Z,76.19
2023-04-03T06:14:34.537Z,76.19
2023-04-03T06:17:01.117Z,75.96
2023-04-03T06:19:27.598Z,75.29
2023-04-03T06:21:54.085Z,75.47
2023-04-03T06:24:22.611Z,75.42
2023-04-03T06:26:49.760Z,75.60
2023-04-03T06:29:16.412Z,75.32
2023-04-03T06:31:42.910Z,75.50
2023-04-03T06:34:09.897Z,75.11
2023-04-03T06:36:36.668Z,75.53
2023-04-03T06:39:04.150Z,75.09
2023-04-03T06:41:30.988Z,75.69
2023-04-03T06:43:58.932Z,75.32
2023-04-03T06:46:27.430Z,75.05
2023-04-03T06:48:54.034Z,74.56
2023-04-03T06:51:21.761Z,73.98
2023-04-03T06:53:51.546Z,73.62
2023-04-03T06:56:18.383Z,73.94
2023-04-03T06:58:45.914Z,73.49
2023-04-03T07:01:14.718Z,73.18
2023-04-03T07:03:41.558Z,73.14
2023-04-03T07:06:11.665Z,73.02
2023-04-03T07:08:38.158Z,72.79
2023-04-03T07:11:05.848Z,72.36
2023-04-03T07:13:32.452Z,72.33
2023-04-03T07:15:59.340Z,71.98
2023-04-03T07:18:26.313Z,71.82
2023-04-03T07:20:53.323Z,71.12
2023-04-03T07:23:20.162Z,70.82
2023-04-03T07:25:47.656Z,70.49
2023-04-03T07:28:14.483Z,69.69
2023-04-03T07:30:46.104Z,69.84
2023-04-03T07:33:15.175Z,68.91
2023-04-03T07:35:42.478Z,68.56
2023-04-03T07:38:09.558Z,67.95
2023-04-03T07:40:36.703Z,67.22
2023-04-03T07:43:03.377Z,67.13
2023-04-03T07:45:30.058Z,66.38
2023-04-03T07:47:56.848Z,65.20
2023-04-03T07:50:23.712Z,64.87
2023-04-03T07:52:51.821Z,64.39
2023-04-03T07:55:18.363Z,63.91
2023-04-03T07:57:44.786Z,63.12
2023-04-03T08:00:13.008Z,62.84
2023-04-03T08:02:39.487Z,62.08
2023-04-03T08:05:06.459Z,61.89
2023-04-03T08:07:32.974Z,61.02
2023-04-03T08:09:59.417Z,60.23
2023-04-03T08:12:26.216Z,58.29
2023-04-03T08:14:52.617Z,57.42
2023-04-03T08:17:19.202Z,56.79
2023-04-03T08:19:45.658Z,57.81
2023-04-03T08:22:12.143Z,57.48
2023-04-03T08:24:39.421Z,56.66
2023-04-03T08:27:09.638Z,56.07
2023-04-03T08:29:38.656Z,53.00
2023-04-03T08:32:05.958Z,51.56
2023-04-03T08:34:35.734Z,51.14
2023-04-03T08:37:02.446Z,50.11
2023-04-03T08:39:29.003Z,49.20
2023-04-03T08:41:58.987Z,47.63
2023-04-03T08:44:26.678Z,47.85
2023-04-03T08:47:05.578Z,42.79
2023-04-03T08:49:52.167Z,43.76
2023-04-03T08:52:21.373Z,45.03
2023-04-03T08:54:51.678Z,42.53
2023-04-03T08:57:25.515Z,42.10
2023-04-03T08:59:52.204Z,43.39
2023-04-03T09:02:28.549Z,41.81
2023-04-03T09:04:55.247Z,43.66
2023-04-03T09:07:37.857Z,41.52
2023-04-03T09:10:04.678Z,42.65
2023-04-03T09:12:52.682Z,36.72
2023-04-03T09:15:37.908Z,37.46
2023-04-03T09:18:18.271Z,36.03
2023-04-03T09:20:57.733Z,33.43
2023-04-03T09:23:45.843Z,31.74
2023-04-03T09:26:19.083Z,33.37
2023-04-03T09:28:49.889Z,34.96
2023-04-03T09:31:25.642Z,31.52
2023-04-03T09:33:55.735Z,31.87
2023-04-03T09:36:41.566Z,29.42
2023-04-03T09:39:25.142Z,30.94
2023-04-03T09:42:08.182Z,29.13
2023-04-03T09:44:36.950Z,29.55
2023-04-03T09:47:29.221Z,27.76
2023-04-03T09:50:18.200Z,26.87
2023-04-03T09:52:47.373Z,28.25
2023-04-03T09:55:29.563Z,26.26
2023-04-03T09:57:58.558Z,26.24
2023-04-03T10:00:28.000Z,25.25
2023-04-03T10:02:59.028Z,23.38
2023-04-03T10:05:43.757Z,22.77
2023-04-03T10:08:11.775Z,24.50
2023-04-03T10:10:39.139Z,24.64
2023-04-03T10:13:20.249Z,22.95
2023-04-03T10:16:08.703Z,23.50
2023-04-03T10:18:45.739Z,22.68
2023-04-03T10:21:33.348Z,22.81
2023-04-03T10:24:25.663Z,22.92
2023-04-03T10:26:59.172Z,24.01
2023-04-03T10:29:37.642Z,24.42
2023-04-03T10:32:13.851Z,24.97
2023-04-03T10:34:49.099Z,24.46
2023-04-03T10:37:27.246Z,24.77
2023-04-03T10:39:59.655Z,25.36
2023-04-03T10:42:48.414Z,25.05
2023-04-03T10:45:23.922Z,24.45
2023-04-03T10:47:57.643Z,24.00
2023-04-03T10:50:55.969Z,23.77
2023-04-03T10:53:29.581Z,24.15
2023-04-03T10:56:16.422Z,24.16
2023-04-03T10:58:55.308Z,24.20
2023-04-03T11:01:26.033Z,24.13
2023-04-03T11:03:54.661Z,24.00
2023-04-03T11:06:24.665Z,25.03
2023-04-03T11:09:02.544Z,23.85
2023-04-03T11:11:33.504Z,24.39
2023-04-03T11:14:19.150Z,23.46
2023-04-03T11:16:54.526Z,24.60
2023-04-03T11:19:25.172Z,25.33
2023-04-03T11:22:10.739Z,25.01
2023-04-03T11:24:43.387Z,25.46
2023-04-03T11:27:19.625Z,24.10
2023-04-03T11:29:47.329Z,24.65
2023-04-03T11:32:29.472Z,23.92
2023-04-03T11:35:00.061Z,24.71
2023-04-03T11:37:34.918Z,25.38
2023-04-03T11:40:20.523Z,24.46
2023-04-03T11:42:49.945Z,25.21
2023-04-03T11:45:51.779Z,24.16
2023-04-03T11:48:34.207Z,25.00
2023-04-03T11:51:01.700Z,25.28
2023-04-03T11:53:40.029Z,24.48
2023-04-03T11:56:24.808Z,24.46
2023-04-03T11:59:13.123Z,24.23
2023-04-03T12:01:56.553Z,24.50
2023-04-03T12:04:25.837Z,24.96
2023-04-03T12:07:15.972Z,23.34
2023-04-03T12:09:43.039Z,24.12
2023-04-03T12:12:30.311Z,23.60
2023-04-03T12:14:57.066Z,24.19
2023-04-03T12:17:27.068Z,23.76
2023-04-03T12:19:54.008Z,24.40
2023-04-03T12:22:21.882Z,24.65
2023-04-03T12:24:53.289Z,25.75
2023-04-03T12:27:29.790Z,25.43
2023-04-03T12:30:08.272Z,25.61
2023-04-03T12:32:41.321Z,24.24
2023-04-03T12:35:19.833Z,24.76
2023-04-03T12:38:33.502Z,24.36
2023-04-03T12:41:18.677Z,25.58
2023-04-03T12:43:55.662Z,25.15
2023-04-03T12:46:23.559Z,25.32
2023-04-03T12:48:55.929Z,23.68
2023-04-03T12:51:43.614Z,22.93
2023-04-03T12:54:17.778Z,23.16
2023-04-03T12:56:44.269Z,24.11
2023-04-03T12:59:17.502Z,23.09
2023-04-03T13:01:44.913Z,24.02
2023-04-03T13:04:13.356Z,23.35
2023-04-03T13:06:42.227Z,23.11
2023-04-03T13:09:24.741Z,22.82
2023-04-03T13:11:55.667Z,21.85
2023-04-03T13:14:23.891Z,22.77
2023-04-03T13:17:01.211Z,21.78
2023-04-03T13:19:30.001Z,21.86
2023-04-03T13:22:07.763Z,21.49
2023-04-03T13:24:37.892Z,21.25
2023-04-03T13:27:05.376Z,21.00
2023-04-03T13:29:34.823Z,20.06
2023-04-03T13:32:01.792Z,20.07
2023-04-03T13:34:40.137Z,20.66
2023-04-03T13:37:08.310Z,21.18
2023-04-03T13:39:37.921Z,20.40
2023-04-03T13:42:28.397Z,19.35
2023-04-03T13:45:31.614Z,19.01
2023-04-03T13:51:02.590Z,18.63
2023-04-03T13:53:30.959Z,19.07
2023-04-03T13:56:03.537Z,18.60
2023-04-03T13:58:31.884Z,19.43
2023-04-03T14:01:10.977Z,18.67
2023-04-03T14:03:53.776Z,18.36
2023-04-03T14:06:20.231Z,18.97
2023-04-03T14:08:47.278Z,18.74
2023-04-03T14:11:41.956Z,19.24
2023-04-03T14:14:16.342Z,19.26
2023-04-03T14:16:46.523Z,19.04
2023-04-03T14:19:19.527Z,18.32
2023-04-03T14:21:46.301Z,18.66
2023-04-03T14:24:13.173Z,19.60
2023-04-03T14:26:39.701Z,19.96
2023-04-03T14:29:06.959Z,19.27
2023-04-03T14:31:33.431Z,19.12
2023-04-03T14:34:00.243Z,19.16
2023-04-03T14:36:28.217Z,18.77
2023-04-03T14:38:55.725Z,19.07
2023-04-03T14:41:24.380Z,18.37
2023-04-03T14:43:51.845Z,18.47
2023-04-03T14:46:25.023Z,18.31
2023-04-03T14:48:53.126Z,19.50
2023-04-03T14:51:19.539Z,18.94
2023-04-03T14:53:46.351Z,18.72
2023-04-03T14:56:23.111Z,18.62
2023-04-03T14:58:51.634Z,18.60
2023-04-03T15:01:19.387Z,18.15
2023-04-03T15:03:46.944Z,19.10
2023-04-03T15:06:15.593Z,18.64
2023-04-03T15:08:56.330Z,18.70
2023-04-03T15:11:22.848Z,19.07
2023-04-03T15:13:49.230Z,18.81
2023-04-03T15:16:17.988Z,18.99
2023-04-03T15:18:44.838Z,18.94
2023-04-03T15:21:11.852Z,19.40
2023-04-03T15:23:38.298Z,19.29
2023-04-03T15:26:04.857Z,19.01
2023-04-03T15:28:34.082Z,18.27
2023-04-03T15:31:00.533Z,19.15
2023-04-03T15:33:27.123Z,19.30
2023-04-03T15:35:55.841Z,19.68
2023-04-03T15:38:22.852Z,19.82
2023-04-03T15:40:49.356Z,19.79
2023-04-03T15:43:16.268Z,19.32
2023-04-03T15:45:43.493Z,19.09
2023-04-03T15:48:10.919Z,19.44
2023-04-03T15:50:37.633Z,19.97
2023-04-03T15:53:04.351Z,19.93
2023-04-03T15:55:33.323Z,20.52
2023-04-03T15:58:00.537Z,20.81
2023-04-03T16:00:27.403Z,20.57
2023-04-03T16:02:56.691Z,20.68
2023-04-03T16:05:23.222Z,21.23
2023-04-03T16:07:49.690Z,21.24
2023-04-03T16:10:18.672Z,20.53
2023-04-03T16:12:46.254Z,20.38
2023-04-03T16:15:12.836Z,21.53
2023-04-03T16:17:41.852Z,20.84
2023-04-03T16:20:09.467Z,21.54
2023-04-03T16:22:36.181Z,21.64
2023-04-03T16:25:02.770Z,22.11
2023-04-03T16:27:30.966Z,21.96
2023-04-03T16:29:58.107Z,21.52
2023-04-03T16:32:25.409Z,21.40
2023-04-03T16:34:52.556Z,22.69
2023-04-03T16:37:18.944Z,22.47
2023-04-03T16:39:45.740Z,22.44
2023-04-03T16:42:12.217Z,23.77
2023-04-03T16:44:40.543Z,23.92
2023-04-03T16:47:08.704Z,23.79
2023-04-03T16:49:35.872Z,23.98
2023-04-03T16:52:03.808Z,24.74
2023-04-03T16:54:30.849Z,25.13
2023-04-03T16:56:57.613Z,26.40
2023-04-03T16:59:24.345Z,25.89
2023-04-03T17:01:50.962Z,26.80
2023-04-03T17:04:17.648Z,26.95
2023-04-03T17:06:44.262Z,27.64
2023-04-03T17:09:10.863Z,27.72
2023-04-03T17:11:37.414Z,27.79
2023-04-03T17:14:04.028Z,28.71
2023-04-03T17:16:30.880Z,28.16
2023-04-03T17:18:57.736Z,28.19
2023-04-03T17:21:24.567Z,28.79
2023-04-03T17:23:58.303Z,30.65
2023-04-03T17:26:26.502Z,30.93
2023-04-03T17:28:53.390Z,32.20
2023-04-03T17:31:19.917Z,32.94
2023-04-03T17:33:46.348Z,33.75
2023-04-03T17:36:12.913Z,34.24
2023-04-03T17:38:39.417Z,33.92
2023-04-03T17:41:07.642Z,34.05
2023-04-03T17:43:34.229Z,33.85
2023-04-03T17:46:06.742Z,35.08
2023-04-03T17:48:34.215Z,34.48
2023-04-03T17:51:06.363Z,36.69
2023-04-03T17:53:32.817Z,36.49
2023-04-03T17:55:59.615Z,36.84
2023-04-03T17:58:27.147Z,36.89
2023-04-03T18:00:55.041Z,37.77
2023-04-03T18:03:21.456Z,37.38
2023-04-03T18:05:47.869Z,37.55
2023-04-03T18:08:14.280Z,37.74
2023-04-03T18:10:41.113Z,38.17
2023-04-03T18:13:07.974Z,38.16
2023-04-03T18:15:34.606Z,37.90
2023-04-03T18:18:01.229Z,38.20
2023-04-03T18:20:27.622Z,38.36
2023-04-03T18:22:54.046Z,38.47
2023-04-03T18:25:20.592Z,38.80
2023-04-03T18:27:47.947Z,39.51
2023-04-03T18:30:16.993Z,39.53
2023-04-03T18:32:43.774Z,39.71
2023-04-03T18:35:10.538Z,39.92
2023-04-03T18:37:36.930Z,39.72
2023-04-03T18:40:03.444Z,39.88
2023-04-03T18:42:29.920Z,39.75
2023-04-03T18:44:58.641Z,40.50
2023-04-03T18:47:25.375Z,40.48
2023-04-03T18:49:51.820Z,41.12
2023-04-03T18:52:18.325Z,41.20
2023-04-03T18:54:44.871Z,41.09
2023-04-03T18:57:11.413Z,41.46
2023-04-03T18:59:38.626Z,41.10
2023-04-03T19:02:06.783Z,41.12
2023-04-03T19:04:33.356Z,41.56
2023-04-03T19:07:00.176Z,42.06
2023-04-03T19:09:26.571Z,41.95
2023-04-03T19:11:53.030Z,42.01
2023-04-03T19:14:19.450Z,42.45
2023-04-03T19:16:46.261Z,43.11
2023-04-03T19:19:12.739Z,44.10
2023-04-03T19:21:41.487Z,43.93
2023-04-03T19:24:12.569Z,44.63
2023-04-03T19:26:39.910Z,44.35
2023-04-03T19:29:07.666Z,44.20
2023-04-03T19:31:34.996Z,43.97
2023-04-03T19:34:02.660Z,44.30
2023-04-03T19:36:29.468Z,45.21
2023-04-03T19:38:56.023Z,44.74
2023-04-03T19:41:24.249Z,45.23
2023-04-03T19:43:52.735Z,45.64
2023-04-03T19:46:24.944Z,45.76
2023-04-03T19:48:52.149Z,45.65
2023-04-03T19:51:18.728Z,44.94
2023-04-03T19:53:47.261Z,45.88
2023-04-03T19:56:16.522Z,46.27
2023-04-03T19:58:43.409Z,46.10
2023-04-03T20:01:10.224Z,46.33
2023-04-03T20:03:36.692Z,46.38
2023-04-03T20:06:04.875Z,47.62
2023-04-03T20:08:31.728Z,47.39
2023-04-03T20:10:58.207Z,47.54
2023-04-03T20:13:24.673Z,47.73
2023-04-03T20:15:51.319Z,47.62
2023-04-03T20:18:19.874Z,47.92
2023-04-03T20:20:57.582Z,49.83
2023-04-03T20:23:24.507Z,48.20
2023-04-03T20:26:05.854Z,48.33
2023-04-03T20:28:36.223Z,48.54
2023-04-03T20:31:03.501Z,49.08
2023-04-03T20:33:30.067Z,49.73
2023-04-03T20:35:57.528Z,49.64
2023-04-03T20:38:24.476Z,49.36
2023-04-03T20:40:50.864Z,49.25
2023-04-03T20:43:17.302Z,49.39
2023-04-03T20:45:43.871Z,50.04
2023-04-03T20:48:13.093Z,49.94
2023-04-03T20:50:40.921Z,50.09
2023-04-03T20:53:08.196Z,50.55
2023-04-03T20:55:34.820Z,51.06
2023-04-03T20:58:01.352Z,51.20
2023-04-03T21:00:28.868Z,51.56
2023-04-03T21:02:57.048Z,51.53
2023-04-03T21:05:25.986Z,52.25
2023-04-03T21:08:29.960Z,54.41
2023-04-03T21:11:34.100Z,54.95
2023-04-03T21:14:38.377Z,54.85
2023-04-03T21:17:04.789Z,53.58
2023-04-03T21:19:31.666Z,54.28
2023-04-03T21:22:01.281Z,54.78
2023-04-03T21:24:27.948Z,54.40
2023-04-03T21:26:56.776Z,54.66
2023-04-03T21:29:23.261Z,54.61
2023-04-03T21:31:56.858Z,55.76
2023-04-03T21:34:27.959Z,55.60
2023-04-03T21:36:55.657Z,55.73
2023-04-03T21:39:23.064Z,55.68
2023-04-03T21:41:51.515Z,55.54
2023-04-03T21:44:19.175Z,55.87
2023-04-03T21:46:49.724Z,56.56
2023-04-03T21:49:16.275Z,55.83
2023-04-03T21:51:42.850Z,56.24
2023-04-03T21:54:09.374Z,56.32
2023-04-03T21:56:36.227Z,56.63
2023-04-03T21:59:03.158Z,56.80
2023-04-03T22:01:30.272Z,57.31
2023-04-03T22:04:02.516Z,57.17
2023-04-03T22:06:29.228Z,57.23
2023-04-03T22:08:58.635Z,57.23
2023-04-03T22:11:27.033Z,57.63
2023-04-03T22:13:55.113Z,57.55
2023-04-03T22:16:23.578Z,56.98
2023-04-03T22:18:52.076Z,56.01
2023-04-03T22:21:18.779Z,56.39
2023-04-03T22:23:45.301Z,56.20
2023-04-03T22:26:13.036Z,56.02
2023-04-03T22:28:41.616Z,56.09
2023-04-03T22:31:08.577Z,55.45
2023-04-03T22:33:38.301Z,54.73
2023-04-03T22:36:06.029Z,54.24
2023-04-03T22:38:32.935Z,54.00
2023-04-03T22:41:00.736Z,54.17
2023-04-03T22:43:28.121Z,53.83
2023-04-03T22:45:55.047Z,54.17
2023-04-03T22:48:21.729Z,54.19
2023-04-03T22:50:48.591Z,54.03
2023-04-03T22:53:15.048Z,53.83
2023-04-03T22:55:41.507Z,54.30
2023-04-03T22:58:08.117Z,53.63
2023-04-03T23:00:34.630Z,54.34
2023-04-03T23:03:01.829Z,54.63
2023-04-03T23:05:28.891Z,54.35
2023-04-03T23:07:55.291Z,54.62
2023-04-03T23:10:22.233Z,54.92
2023-04-03T23:12:48.600Z,55.73
2023-04-03T23:15:15.333Z,55.69
2023-04-03T23:17:42.291Z,56.43
2023-04-03T23:20:09.733Z,56.21
2023-04-03T23:22:36.286Z,56.64
2023-04-03T23:25:02.682Z,56.52
2023-04-03T23:27:29.117Z,57.25
2023-04-03T23:29:55.571Z,56.96
2023-04-03T23:32:21.949Z,56.75
2023-04-03T23:34:48.445Z,57.05
2023-04-03T23:37:14.831Z,57.20
2023-04-03T23:39:41.458Z,57.22
2023-04-03T23:42:10.716Z,57.22
2023-04-03T23:44:37.277Z,57.53
2023-04-03T23:47:03.724Z,58.11
2023-04-03T23:49:30.102Z,58.10
2023-04-03T23:51:57.475Z,58.50
2023-04-03T23:54:23.948Z,58.29
2023-04-03T23:56:50.327Z,58.76
2023-04-03T23:59:16.762Z,58.91
